Time;durP1;ratioP1;P1;durP2;ratioP2;P2;SDS_P1;SDS_P2;PMS_P1;PMS_P2;Temp;Humidity;BMP_temperature;BMP_pressure;BME280_temperature;BME280_humidity;BME280_pressure;Samples;Min_cycle;Max_cycle;Signal;HPM_P1;HPM_P2
2022/08/22 00:02:23;;;;;;;7.15;2.25;;;16.10;99.90;;;;;;5063952;28;20060;-81
2022/08/22 00:04:58;;;;;;;7.60;2.30;;;16.00;99.90;;;;;;5077981;28;20055;-81
2022/08/22 00:07:47;;;;;;;7.68;2.30;;;16.00;99.90;;;;;;5057399;28;20543;-81
2022/08/22 00:10:23;;;;;;;6.05;1.80;;;16.00;99.90;;;;;;5080129;28;20063;-80
2022/08/22 00:13:02;;;;;;;6.82;1.92;;;15.90;99.90;;;;;;5079387;28;20093;-80
2022/08/22 00:15:35;;;;;;;8.40;2.50;;;16.00;99.90;;;;;;5077724;28;20036;-80
2022/08/22 00:18:30;;;;;;;10.90;2.22;;;15.90;99.90;;;;;;5062275;28;20040;-81
2022/08/22 00:21:21;;;;;;;7.22;2.35;;;16.00;99.90;;;;;;4986981;28;20049;-79
2022/08/22 00:24:05;;;;;;;8.30;2.45;;;16.00;99.90;;;;;;5058548;28;20063;-81
2022/08/22 00:26:46;;;;;;;5.40;2.00;;;16.00;99.90;;;;;;5078200;28;20055;-81
2022/08/22 00:29:17;;;;;;;9.65;3.60;;;16.00;99.90;;;;;;5079834;28;20040;-81
2022/08/22 00:31:50;;;;;;;8.75;2.60;;;16.00;99.90;;;;;;5078270;28;20387;-81
2022/08/22 00:34:35;;;;;;;7.15;2.25;;;16.00;99.90;;;;;;5075820;28;20086;-79
2022/08/22 00:37:05;;;;;;;6.15;2.17;;;16.00;99.90;;;;;;5078527;28;20064;-81
2022/08/22 00:39:57;;;;;;;6.30;1.92;;;16.00;99.90;;;;;;5079305;28;20036;-80
2022/08/22 00:42:43;;;;;;;3.63;1.52;;;15.90;99.90;;;;;;5079305;28;20209;-80
2022/08/22 00:45:33;;;;;;;4.63;2.00;;;15.90;99.90;;;;;;5078067;28;20508;-80
2022/08/22 00:48:20;;;;;;;6.43;2.63;;;15.90;99.90;;;;;;5077575;28;20758;-81
2022/08/22 00:51:08;;;;;;;14.43;2.83;;;15.90;99.90;;;;;;5059960;28;20486;-81
2022/08/22 00:54:08;;;;;;;7.43;2.20;;;16.00;99.90;;;;;;5080510;28;20063;-80
2022/08/22 00:57:02;;;;;;;5.55;2.28;;;16.00;99.90;;;;;;5080402;28;20051;-79
2022/08/22 00:59:57;;;;;;;6.20;2.22;;;16.00;99.90;;;;;;5083727;28;20091;-79
2022/08/22 01:02:41;;;;;;;6.60;2.00;;;15.90;99.90;;;;;;5085353;28;20043;-79
2022/08/22 01:05:28;;;;;;;5.60;1.80;;;15.80;99.90;;;;;;5083428;28;20047;-81
2022/08/22 01:08:40;;;;;;;6.50;2.10;;;15.90;99.90;;;;;;5084765;28;20044;-80
2022/08/22 01:11:34;;;;;;;9.32;2.53;;;15.80;99.90;;;;;;5035050;28;20055;-81
2022/08/22 01:14:40;;;;;;;6.78;2.35;;;15.80;99.90;;;;;;5080185;28;20055;-81
2022/08/22 01:17:40;;;;;;;4.20;2.20;;;15.80;99.90;;;;;;5081801;28;20148;-81
2022/08/22 01:20:47;;;;;;;6.00;2.10;;;15.70;99.90;;;;;;5077480;28;20123;-79
2022/08/22 01:23:44;;;;;;;5.72;2.00;;;15.70;99.90;;;;;;5078798;28;21742;-80
2022/08/22 01:26:22;;;;;;;7.25;1.92;;;15.70;99.90;;;;;;5083742;28;20968;-81
2022/08/22 01:29:23;;;;;;;6.28;2.30;;;15.70;99.90;;;;;;5079670;28;20052;-81
2022/08/22 01:32:34;;;;;;;6.20;2.33;;;15.70;99.90;;;;;;5082786;28;20043;-81
2022/08/22 01:35:32;;;;;;;6.93;2.78;;;15.60;99.90;;;;;;5081788;28;20044;-79
2022/08/22 01:38:14;;;;;;;6.70;2.30;;;15.60;99.90;;;;;;5081731;28;20050;-80
2022/08/22 01:40:55;;;;;;;7.85;2.10;;;15.60;99.90;;;;;;5086395;28;20047;-79
2022/08/22 01:43:50;;;;;;;5.38;2.38;;;15.60;99.90;;;;;;5080645;28;20036;-80
2022/08/22 01:46:31;;;;;;;8.25;2.40;;;15.60;99.90;;;;;;5082414;28;20150;-81
2022/08/22 01:49:11;;;;;;;9.77;2.75;;;15.50;99.90;;;;;;5082426;28;20048;-79
2022/08/22 01:51:48;;;;;;;6.05;2.00;;;15.60;99.90;;;;;;5083367;28;20048;-80
2022/08/22 01:54:40;;;;;;;9.05;2.78;;;15.50;99.90;;;;;;5081799;28;20040;-79
2022/08/22 01:57:07;;;;;;;7.57;3.20;;;15.60;99.90;;;;;;5082462;28;20062;-80
2022/08/22 01:59:38;;;;;;;5.80;2.03;;;15.60;99.90;;;;;;5080782;28;20055;-80
2022/08/22 02:02:28;;;;;;;6.05;2.50;;;15.50;99.90;;;;;;5079978;28;20042;-78
2022/08/22 02:05:05;;;;;;;10.15;2.55;;;15.50;99.90;;;;;;5080807;28;20148;-79
2022/08/22 02:08:13;;;;;;;9.73;2.90;;;15.50;99.90;;;;;;5078874;28;20075;-81
2022/08/22 02:11:12;;;;;;;6.38;2.28;;;15.50;99.90;;;;;;5084381;28;20028;-81
2022/08/22 02:13:48;;;;;;;7.57;2.80;;;15.50;99.90;;;;;;5069037;28;20078;-81
2022/08/22 02:16:35;;;;;;;8.38;2.88;;;15.50;99.90;;;;;;5080618;28;20051;-81
2022/08/22 02:19:13;;;;;;;10.25;3.55;;;15.50;99.90;;;;;;5082432;28;20055;-81
2022/08/22 02:21:50;;;;;;;9.57;3.47;;;15.60;99.90;;;;;;5096637;28;20048;-80
2022/08/22 02:24:28;;;;;;;9.38;3.00;;;15.60;99.90;;;;;;5078332;28;20032;-80
2022/08/22 02:27:16;;;;;;;9.00;3.17;;;15.50;99.90;;;;;;5079324;28;20052;-79
2022/08/22 02:29:52;;;;;;;5.88;2.80;;;15.50;99.90;;;;;;5079537;28;20422;-80
2022/08/22 02:32:23;;;;;;;5.63;2.60;;;15.40;99.90;;;;;;5082055;28;20059;-79
2022/08/22 02:38:04;;;;;;;;;;;;;;;;;;;;;
2022/08/22 02:41:00;;;;;;;;;;;;;;;;;;;;;
2022/08/22 02:44:43;;;;;;;;;;;;;;;;;;;;;
2022/08/22 02:47:46;;;;;;;5.15;2.03;;;15.30;99.90;;;;;;5049211;28;20627;-81
2022/08/22 02:50:17;;;;;;;10.23;2.60;;;14.90;99.90;;;;;;5045595;28;20044;-80
2022/08/22 02:52:58;;;;;;;6.22;2.83;;;15.00;99.90;;;;;;5028484;28;20037;-81
2022/08/22 02:55:38;;;;;;;8.82;2.90;;;14.90;99.90;;;;;;5044021;28;21340;-79
2022/08/22 02:58:25;;;;;;;5.43;2.45;;;14.90;99.90;;;;;;5046711;28;20040;-81
2022/08/22 03:01:14;;;;;;;3.85;2.50;;;14.90;99.90;;;;;;5043226;28;20078;-81
2022/08/22 03:03:41;;;;;;;7.20;2.47;;;14.90;99.90;;;;;;5043532;28;20037;-81
2022/08/22 03:06:31;;;;;;;9.40;3.45;;;14.90;99.90;;;;;;5042305;28;20086;-80
2022/08/22 03:09:15;;;;;;;8.07;2.88;;;14.90;99.90;;;;;;5046145;28;20046;-80
2022/08/22 03:12:02;;;;;;;4.07;2.45;;;15.00;99.90;;;;;;5066274;28;20042;-81
2022/08/22 03:14:34;;;;;;;8.70;3.20;;;15.00;99.90;;;;;;5045053;28;20076;-80
2022/08/22 03:16:59;;;;;;;6.45;2.60;;;15.00;99.90;;;;;;5045027;28;20044;-81
2022/08/22 03:19:31;;;;;;;8.20;2.58;;;15.10;99.90;;;;;;5059483;28;20042;-80
2022/08/22 03:22:09;;;;;;;5.03;2.03;;;15.10;99.90;;;;;;5041632;28;20040;-81
2022/08/22 03:25:03;;;;;;;6.55;2.45;;;15.10;99.90;;;;;;5061524;28;20488;-80
2022/08/22 03:27:41;;;;;;;12.82;3.47;;;15.10;99.90;;;;;;5044077;28;20881;-81
2022/08/22 03:30:20;;;;;;;8.43;2.75;;;15.20;99.90;;;;;;5058685;28;20048;-81
2022/08/22 03:32:58;;;;;;;13.27;3.75;;;15.20;99.90;;;;;;5040057;28;20096;-80
2022/08/22 03:35:53;;;;;;;7.15;3.28;;;15.20;99.90;;;;;;5024914;28;20033;-81
2022/08/22 03:38:27;;;;;;;7.07;2.83;;;15.20;99.90;;;;;;5039159;28;20132;-80
2022/08/22 03:41:11;;;;;;;7.53;4.05;;;15.10;99.90;;;;;;5062283;28;20040;-81
2022/08/22 03:44:01;;;;;;;9.32;3.60;;;15.10;99.90;;;;;;5042536;28;20040;-80
2022/08/22 03:46:42;;;;;;;8.05;3.30;;;15.10;99.90;;;;;;5045939;28;20050;-80
2022/08/22 03:49:29;;;;;;;8.27;3.80;;;15.00;99.90;;;;;;5058887;28;20098;-80
2022/08/22 03:52:23;;;;;;;10.45;4.30;;;15.00;99.90;;;;;;5040143;28;20052;-80
2022/08/22 03:55:01;;;;;;;8.63;3.15;;;15.10;99.90;;;;;;5044838;28;20083;-81
2022/08/22 03:58:08;;;;;;;9.50;3.75;;;15.10;99.90;;;;;;5042270;28;21025;-81
2022/08/22 04:01:06;;;;;;;9.65;3.00;;;15.10;99.90;;;;;;5058941;28;20053;-80
2022/08/22 04:03:51;;;;;;;6.80;3.00;;;15.00;99.90;;;;;;5043848;28;20508;-81
2022/08/22 04:06:45;;;;;;;7.05;3.47;;;15.00;99.90;;;;;;5045148;28;20730;-81
2022/08/22 04:09:25;;;;;;;11.77;4.97;;;15.00;99.90;;;;;;5059779;28;20474;-81
2022/08/22 04:12:19;;;;;;;8.68;3.97;;;15.00;99.90;;;;;;5031159;28;20056;-80
2022/08/22 04:15:14;;;;;;;7.82;4.55;;;15.00;99.90;;;;;;5042556;28;20049;-80
2022/08/22 04:17:54;;;;;;;9.43;4.00;;;15.00;99.90;;;;;;5040851;28;20043;-80
2022/08/22 04:20:35;;;;;;;6.95;3.95;;;15.00;99.90;;;;;;5044111;28;20321;-80
2022/08/22 04:23:25;;;;;;;9.38;3.63;;;14.90;99.90;;;;;;5041530;28;20105;-80
2022/08/22 04:26:09;;;;;;;8.57;3.33;;;14.90;99.90;;;;;;5028246;28;20044;-80
2022/08/22 04:28:44;;;;;;;7.53;3.25;;;14.80;99.90;;;;;;5044245;28;20651;-79
2022/08/22 04:31:13;;;;;;;5.43;3.33;;;14.80;99.90;;;;;;5047866;28;20048;-81
2022/08/22 04:33:52;;;;;;;5.82;2.92;;;14.70;99.90;;;;;;5045147;28;20125;-79
2022/08/22 04:36:40;;;;;;;6.82;3.20;;;14.80;99.90;;;;;;5045849;28;20079;-81
2022/08/22 04:39:19;;;;;;;5.20;2.95;;;14.80;99.90;;;;;;5045683;28;20040;-79
2022/08/22 04:41:56;;;;;;;6.25;3.08;;;14.70;99.90;;;;;;5049686;28;20049;-79
2022/08/22 04:44:37;;;;;;;6.20;2.92;;;14.70;99.90;;;;;;5067470;28;20040;-80
2022/08/22 04:47:13;;;;;;;5.95;3.22;;;14.70;99.90;;;;;;5047581;28;20044;-80
2022/08/22 04:49:46;;;;;;;8.80;3.28;;;14.70;99.90;;;;;;5047743;28;20058;-81
2022/08/22 04:52:28;;;;;;;7.97;3.20;;;14.70;99.90;;;;;;5049324;28;20044;-81
2022/08/22 04:55:09;;;;;;;8.95;3.15;;;14.70;99.90;;;;;;5047250;28;20451;-82
2022/08/22 04:57:56;;;;;;;6.20;3.13;;;14.70;99.90;;;;;;5065048;28;20059;-82
2022/08/22 05:00:22;;;;;;;6.32;3.25;;;14.70;99.90;;;;;;5045289;28;20048;-82
2022/08/22 05:02:55;;;;;;;13.25;4.35;;;14.70;99.90;;;;;;5027516;28;20047;-80
2022/08/22 05:05:25;;;;;;;6.30;3.55;;;14.70;99.90;;;;;;5047657;28;20479;-81
2022/08/22 05:08:04;;;;;;;7.03;3.92;;;14.80;99.90;;;;;;5062366;28;20123;-82
2022/08/22 05:10:37;;;;;;;7.68;3.95;;;14.80;99.90;;;;;;5062849;28;20040;-82
2022/08/22 05:13:08;;;;;;;8.25;3.10;;;14.80;99.90;;;;;;5066446;28;20048;-81
2022/08/22 05:15:41;;;;;;;6.93;3.30;;;14.90;99.90;;;;;;5075006;28;20025;-80
2022/08/22 05:18:12;;;;;;;9.52;4.15;;;15.00;99.90;;;;;;5047079;28;20045;-81
2022/08/22 05:20:55;;;;;;;8.52;3.53;;;15.00;99.90;;;;;;5061052;28;20234;-81
2022/08/22 05:23:33;;;;;;;8.40;3.08;;;15.10;99.90;;;;;;5031486;28;20067;-81
2022/08/22 05:26:03;;;;;;;5.15;3.10;;;15.20;99.90;;;;;;5047266;28;20513;-81
2022/08/22 05:28:34;;;;;;;8.68;3.83;;;15.20;99.90;;;;;;5044315;28;21042;-81
2022/08/22 05:31:25;;;;;;;7.90;3.22;;;15.30;99.90;;;;;;5047112;28;20068;-81
2022/08/22 05:33:55;;;;;;;9.07;3.63;;;15.40;99.90;;;;;;5042985;28;20048;-79
2022/08/22 05:36:27;;;;;;;12.35;3.53;;;15.50;99.90;;;;;;5045584;28;20048;-80
2022/08/22 05:39:05;;;;;;;13.85;4.32;;;15.60;99.90;;;;;;5043010;28;20095;-81
2022/08/22 05:42:13;;;;;;;9.45;3.42;;;15.70;99.90;;;;;;5048191;28;20602;-83
2022/08/22 05:47:58;;;;;;;8.95;3.40;;;16.00;99.90;;;;;;5111561;22;20040;-79
2022/08/22 05:50:46;;;;;;;9.45;3.45;;;15.90;99.90;;;;;;5062094;28;20047;-81
2022/08/22 05:53:36;;;;;;;11.57;4.22;;;16.00;99.90;;;;;;5065596;28;20063;-84
2022/08/22 06:00:27;;;;;;;8.43;3.83;;;16.00;99.90;;;;;;5055724;28;20098;-84
2022/08/22 06:13:54;;;;;;;10.27;4.18;;;16.00;99.90;;;;;;5021920;28;20120;-84
2022/08/22 06:17:09;;;;;;;12.40;3.90;;;16.20;99.90;;;;;;5048255;28;20051;-83
2022/08/22 06:19:46;;;;;;;10.30;4.10;;;16.50;99.90;;;;;;5037526;28;20393;-80
2022/08/22 06:22:30;;;;;;;10.52;3.85;;;16.60;99.90;;;;;;5024483;28;20053;-81
2022/08/22 06:25:17;;;;;;;12.18;4.72;;;16.40;99.90;;;;;;5039009;28;20044;-83
2022/08/22 06:27:53;;;;;;;8.88;3.65;;;16.40;99.90;;;;;;5024773;28;20139;-83
2022/08/22 06:31:09;;;;;;;;;;;;;;;;;;;;;
2022/08/22 06:42:37;;;;;;;8.77;3.63;;;16.40;99.90;;;;;;5022067;28;20151;-83
2022/08/22 06:57:32;;;;;;;;;;;;;;;;;;;;;
2022/08/22 07:01:10;;;;;;;9.32;3.35;;;17.10;99.90;;;;;;4940390;28;20087;-84
2022/08/22 07:14:48;;;;;;;;;;;17.20;99.90;;;;;;5101365;27;20424;-81
2022/08/22 07:17:34;;;;;;;8.30;3.08;;;17.40;99.90;;;;;;5081820;28;19920;-81
2022/08/22 07:19:59;;;;;;;;;;;17.50;99.90;;;;;;5060367;28;20117;-81
2022/08/22 07:22:27;;;;;;;;;;;17.60;99.90;;;;;;5115005;27;19948;-81
2022/08/22 07:25:04;;;;;;;9.68;2.83;;;17.60;99.90;;;;;;5080807;28;19920;-82
2022/08/22 07:27:51;;;;;;;10.15;2.58;;;17.70;99.90;;;;;;5069499;28;20507;-81
2022/08/22 07:30:19;;;;;;;6.15;2.38;;;17.80;99.90;;;;;;5094821;28;20039;-81
2022/08/22 07:33:06;;;;;;;6.30;3.22;;;17.90;99.90;;;;;;5100757;28;20209;-80
2022/08/22 07:35:41;;;;;;;9.70;2.28;;;17.90;99.90;;;;;;5115507;27;20048;-81
2022/08/22 07:38:24;;;;;;;9.32;3.05;;;18.00;99.90;;;;;;5116524;27;20504;-81
2022/08/22 07:41:11;;;;;;;10.57;3.35;;;18.10;99.90;;;;;;5080029;28;20405;-81
2022/08/22 07:44:06;;;;;;;7.00;2.40;;;18.10;99.90;;;;;;5084494;28;20074;-81
2022/08/22 07:46:37;;;;;;;9.80;2.80;;;18.20;99.90;;;;;;5080641;28;20119;-82
2022/08/22 07:49:19;;;;;;;10.27;2.80;;;18.20;99.90;;;;;;5097841;28;20032;-82
2022/08/22 07:51:48;;;;;;;7.63;2.13;;;18.30;99.90;;;;;;5096869;28;20050;-82
2022/08/22 07:54:36;;;;;;;11.25;2.75;;;18.30;99.90;;;;;;5080703;28;20040;-80
2022/08/22 07:57:13;;;;;;;7.18;2.58;;;18.40;99.90;;;;;;5084379;28;20037;-81
2022/08/22 07:59:46;;;;;;;8.68;2.40;;;18.50;99.90;;;;;;5085790;28;20040;-81
2022/08/22 08:02:14;;;;;;;10.35;2.70;;;18.60;99.90;;;;;;5108295;27;20075;-81
2022/08/22 08:04:41;;;;;;;8.27;2.13;;;18.70;99.90;;;;;;5085482;28;20383;-82
2022/08/22 08:07:10;;;;;;;11.57;2.75;;;18.70;99.90;;;;;;5082682;28;20432;-80
2022/08/22 08:09:48;;;;;;;10.48;2.95;;;18.80;99.90;;;;;;5115451;27;20044;-81
2022/08/22 08:12:17;;;;;;;5.82;1.90;;;18.90;99.90;;;;;;5081264;28;20040;-81
2022/08/22 08:14:48;;;;;;;13.07;2.60;;;18.90;99.90;;;;;;5089433;28;20040;-81
2022/08/22 08:17:27;;;;;;;9.57;2.60;;;19.00;99.90;;;;;;5065301;28;20476;-81
2022/08/22 08:19:55;;;;;;;9.68;2.13;;;19.00;99.90;;;;;;5083294;28;20075;-82
2022/08/22 08:22:27;;;;;;;8.90;2.53;;;19.10;99.90;;;;;;5102018;27;20048;-80
2022/08/22 08:24:57;;;;;;;7.13;2.08;;;19.20;99.90;;;;;;5067271;28;20032;-80
2022/08/22 08:30:16;;;;;;;10.05;2.80;;;19.10;99.90;;;;;;5100098;27;20133;-80
2022/08/22 08:32:50;;;;;;;8.48;2.15;;;19.10;99.90;;;;;;5099484;28;20047;-80
2022/08/22 08:35:23;;;;;;;9.77;2.15;;;19.20;99.90;;;;;;5070780;28;20485;-79
2022/08/22 08:38:14;;;;;;;13.48;3.08;;;19.20;99.90;;;;;;5091935;28;20040;-80
2022/08/22 08:41:08;;;;;;;7.50;2.00;;;19.20;99.90;;;;;;5069697;28;20178;-79
2022/08/22 08:44:09;;;;;;;10.07;2.28;;;19.30;99.90;;;;;;5107462;27;20040;-79
2022/08/22 08:46:57;;;;;;;9.52;2.33;;;19.40;99.90;;;;;;5069345;28;20048;-79
2022/08/22 08:50:03;;;;;;;8.95;2.28;;;19.60;99.90;;;;;;5056941;28;20039;-80
2022/08/22 08:52:35;;;;;;;6.75;1.95;;;19.80;99.90;;;;;;5089231;28;20048;-80
2022/08/22 08:55:17;;;;;;;13.55;2.30;;;19.80;99.90;;;;;;5089657;28;20075;-80
2022/08/22 08:58:18;;;;;;;6.25;1.77;;;20.00;99.90;;;;;;5069644;28;20040;-80
2022/08/22 09:01:17;;;;;;;12.13;2.13;;;20.30;99.90;;;;;;5041393;28;20056;-79
2022/08/22 09:03:55;;;;;;;10.68;1.92;;;20.50;99.90;;;;;;5074077;28;20048;-80
2022/08/22 09:06:54;;;;;;;11.35;2.17;;;20.80;99.90;;;;;;5072807;28;20055;-84
2022/08/22 09:09:29;;;;;;;11.52;2.05;;;20.70;99.90;;;;;;5103057;28;20052;-81
2022/08/22 09:12:32;;;;;;;13.90;2.60;;;20.70;99.90;;;;;;5085596;28;20032;-81
2022/08/22 09:15:46;;;;;;;6.82;1.73;;;20.70;99.90;;;;;;5071299;28;20099;-80
2022/08/22 09:18:49;;;;;;;8.30;2.70;;;20.70;99.90;;;;;;4989523;28;20566;-80
2022/08/22 09:21:56;;;;;;;7.75;2.17;;;20.70;99.90;;;;;;5071312;28;20488;-83
2022/08/22 09:25:16;;;;;;;13.80;2.47;;;20.90;99.90;;;;;;4996442;28;20387;-80
2022/08/22 09:27:50;;;;;;;8.15;2.00;;;21.40;99.90;;;;;;5009150;28;20125;-80
2022/08/22 09:30:19;;;;;;;6.30;1.98;;;21.90;99.90;;;;;;5101040;28;20150;-81
2022/08/22 09:32:57;;;;;;;6.25;1.90;;;22.20;99.90;;;;;;5065493;28;20042;-81
2022/08/22 09:35:38;;;;;;;6.10;1.92;;;22.40;99.90;;;;;;5082488;28;20547;-81
2022/08/22 09:38:21;;;;;;;8.18;1.95;;;22.40;99.90;;;;;;5071035;28;20484;-81
2022/08/22 09:41:26;;;;;;;6.93;1.75;;;22.50;99.90;;;;;;5071451;28;20062;-81
2022/08/22 09:44:12;;;;;;;6.13;1.75;;;22.50;99.90;;;;;;5072320;28;20130;-81
2022/08/22 09:47:06;;;;;;;4.40;1.23;;;22.50;99.90;;;;;;5068866;28;20058;-80
2022/08/22 09:49:45;;;;;;;8.02;1.83;;;22.60;99.90;;;;;;5098298;28;20051;-81
2022/08/22 09:52:46;;;;;;;11.07;1.80;;;22.70;99.90;;;;;;5067776;28;20040;-80
2022/08/22 09:55:40;;;;;;;7.88;1.95;;;22.70;99.90;;;;;;5064254;28;20056;-80
2022/08/22 09:58:06;;;;;;;8.60;2.35;;;22.80;99.90;;;;;;5067776;28;20789;-81
2022/08/22 10:01:08;;;;;;;6.88;1.85;;;22.80;99.90;;;;;;5062442;28;20043;-80
2022/08/22 10:04:12;;;;;;;7.72;1.90;;;22.90;99.90;;;;;;5062242;28;20098;-81
2022/08/22 10:06:57;;;;;;;11.57;2.00;;;22.70;99.90;;;;;;5087329;28;20059;-81
2022/08/22 10:09:28;;;;;;;4.07;1.40;;;22.40;99.90;;;;;;5084018;28;20039;-81
2022/08/22 10:12:13;;;;;;;7.97;1.92;;;22.40;99.90;;;;;;5066903;28;20047;-81
2022/08/22 10:14:57;;;;;;;7.45;1.40;;;22.40;99.90;;;;;;5084862;28;20052;-81
2022/08/22 10:18:10;;;;;;;6.53;1.77;;;22.10;99.90;;;;;;5097153;27;20060;-81
2022/08/22 10:20:59;;;;;;;7.65;1.70;;;22.10;99.90;;;;;;5086314;28;20037;-81
2022/08/22 10:24:09;;;;;;;6.20;1.92;;;22.00;99.90;;;;;;5064956;28;20161;-81
2022/08/22 10:26:50;;;;;;;9.82;1.88;;;21.90;99.90;;;;;;5100433;28;20033;-80
2022/08/22 10:29:51;;;;;;;6.28;1.73;;;21.80;99.90;;;;;;5085162;28;20075;-80
2022/08/22 10:32:42;;;;;;;5.78;2.13;;;21.80;99.90;;;;;;5088553;28;20040;-80
2022/08/22 10:35:19;;;;;;;7.93;1.40;;;21.80;99.90;;;;;;5042602;28;20052;-81
2022/08/22 10:37:45;;;;;;;6.78;1.67;;;21.90;99.90;;;;;;5067618;28;20043;-81
2022/08/22 10:40:29;;;;;;;6.45;1.60;;;21.90;99.90;;;;;;5094852;28;20040;-81
2022/08/22 10:43:09;;;;;;;10.70;2.58;;;21.90;99.90;;;;;;5066117;28;20036;-80
2022/08/22 10:45:45;;;;;;;7.13;1.55;;;22.00;99.90;;;;;;5070343;28;20408;-80
2022/08/22 10:48:11;;;;;;;6.55;1.63;;;22.00;99.90;;;;;;5064710;28;20047;-80
2022/08/22 10:50:46;;;;;;;7.57;2.53;;;22.00;99.90;;;;;;5086529;28;20039;-81
2022/08/22 10:53:32;;;;;;;5.95;1.48;;;22.10;99.90;;;;;;5096920;28;20127;-80
2022/08/22 10:56:20;;;;;;;8.60;2.00;;;22.10;99.90;;;;;;5068388;28;20036;-81
2022/08/22 10:59:12;;;;;;;7.32;1.50;;;22.20;99.90;;;;;;5063712;28;20150;-81
2022/08/22 11:02:03;;;;;;;7.85;1.85;;;22.30;99.90;;;;;;5067040;28;20028;-80
2022/08/22 11:05:01;;;;;;;7.13;1.30;;;22.40;99.90;;;;;;5067944;28;20044;-80
2022/08/22 11:07:45;;;;;;;4.85;1.48;;;22.50;99.90;;;;;;5081309;28;20132;-80
2022/08/22 11:10:48;;;;;;;7.25;1.80;;;22.60;99.90;;;;;;5069496;28;20059;-80
2022/08/22 11:17:24;;;;;;;6.72;2.03;;;22.60;99.90;;;;;;5009461;28;20055;-80
2022/08/22 11:20:05;;;;;;;6.68;1.45;;;22.50;99.90;;;;;;5083692;28;20031;-80
2022/08/22 11:23:00;;;;;;;7.05;1.63;;;22.50;99.90;;;;;;5070439;28;20127;-80
2022/08/22 11:25:47;;;;;;;9.48;1.88;;;22.50;99.90;;;;;;5100195;28;20048;-80
2022/08/22 11:28:36;;;;;;;6.43;1.45;;;22.60;99.90;;;;;;5088138;28;20040;-80
2022/08/22 11:31:21;;;;;;;6.75;1.67;;;22.70;99.90;;;;;;5018371;28;20139;-80
2022/08/22 11:33:51;;;;;;;5.68;2.58;;;22.80;99.90;;;;;;5056941;28;20044;-80
2022/08/22 11:36:53;;;;;;;4.75;1.40;;;22.70;99.90;;;;;;5066427;28;20063;-80
2022/08/22 11:39:39;;;;;;;6.82;1.88;;;22.80;99.90;;;;;;5070440;28;20225;-80
2022/08/22 11:42:19;;;;;;;6.05;2.15;;;22.90;99.90;;;;;;5068105;28;20068;-80
2022/08/22 11:45:02;;;;;;;11.85;2.60;;;22.80;99.90;;;;;;5061970;28;20037;-80
2022/08/22 11:47:48;;;;;;;7.22;1.75;;;22.90;99.90;;;;;;5033142;28;20051;-80
2022/08/22 11:50:33;;;;;;;6.25;1.63;;;23.00;99.90;;;;;;5069929;28;20039;-80
2022/08/22 11:53:18;;;;;;;11.20;2.67;;;23.10;99.90;;;;;;5084413;28;21527;-80
2022/08/22 11:55:52;;;;;;;8.40;2.03;;;23.20;99.90;;;;;;5085708;28;20050;-80
2022/08/22 11:58:28;;;;;;;9.38;1.55;;;23.50;99.90;;;;;;5105986;27;20032;-80
2022/08/22 12:01:09;;;;;;;6.68;1.73;;;23.90;99.90;;;;;;5085081;28;20036;-80
2022/08/22 12:04:05;;;;;;;5.60;1.58;;;24.10;99.90;;;;;;5066888;28;20553;-80
2022/08/22 12:06:43;;;;;;;6.47;1.60;;;24.20;99.90;;;;;;5087506;28;20056;-80
2022/08/22 12:09:17;;;;;;;6.45;1.92;;;24.30;99.90;;;;;;5056750;28;20047;-80
2022/08/22 12:11:54;;;;;;;9.98;2.25;;;24.40;99.90;;;;;;5069996;28;20492;-80
2022/08/22 12:14:26;;;;;;;6.53;1.85;;;24.50;99.90;;;;;;5072260;28;20079;-80
2022/08/22 12:17:10;;;;;;;8.02;2.13;;;24.70;99.90;;;;;;5070221;28;20036;-80
2022/08/22 12:19:51;;;;;;;6.97;1.83;;;24.90;99.90;;;;;;5072431;28;20051;-80
2022/08/22 12:22:40;;;;;;;9.50;2.15;;;25.00;99.90;;;;;;5083239;28;20067;-80
2022/08/22 12:25:17;;;;;;;9.63;1.67;;;25.10;99.90;;;;;;5070486;28;20044;-80
2022/08/22 12:28:07;;;;;;;6.38;1.65;;;25.10;99.90;;;;;;5065521;28;20075;-80
2022/08/22 12:30:58;;;;;;;6.93;1.55;;;25.00;99.90;;;;;;5087684;28;20068;-80
2022/08/22 12:33:29;;;;;;;5.60;1.38;;;24.80;99.90;;;;;;5091119;28;20483;-80
2022/08/22 12:36:06;;;;;;;5.75;1.75;;;24.70;99.90;;;;;;5092042;28;20047;-80
2022/08/22 12:38:58;;;;;;;9.13;1.63;;;24.70;99.90;;;;;;5072333;28;20050;-80
2022/08/22 12:42:18;;;;;;;10.95;1.48;;;24.80;99.90;;;;;;5089263;28;20040;-79
2022/08/22 12:44:54;;;;;;;6.38;1.42;;;24.90;99.90;;;;;;5089168;28;20454;-79
2022/08/22 12:47:39;;;;;;;10.73;2.35;;;25.00;99.90;;;;;;5072174;28;20059;-80
2022/08/22 12:50:39;;;;;;;6.20;1.67;;;25.20;99.90;;;;;;5070128;28;20036;-80
2022/08/22 12:53:17;;;;;;;11.10;1.85;;;25.30;99.90;;;;;;5069034;28;20047;-79
2022/08/22 12:56:07;;;;;;;8.55;1.88;;;25.30;99.90;;;;;;5083522;28;20045;-79
2022/08/22 12:59:07;;;;;;;4.32;1.70;;;25.30;99.90;;;;;;5065265;28;20173;-78
2022/08/22 13:01:41;;;;;;;9.77;2.85;;;25.20;99.90;;;;;;5070697;28;20408;-81
2022/08/22 13:04:14;;;;;;;9.15;1.67;;;25.00;99.90;;;;;;5069796;28;20135;-80
2022/08/22 13:07:00;;;;;;;7.70;1.90;;;25.00;99.90;;;;;;5048826;28;20032;-80
2022/08/22 13:09:45;;;;;;;5.75;1.85;;;25.10;99.90;;;;;;5063711;28;20040;-80
2022/08/22 13:12:33;;;;;;;9.32;1.77;;;25.10;99.90;;;;;;5103589;28;20619;-79
2022/08/22 13:15:40;;;;;;;7.07;2.00;;;25.20;99.90;;;;;;5069824;28;20039;-80
2022/08/22 13:18:18;;;;;;;5.78;1.90;;;25.30;99.90;;;;;;5103746;27;20047;-80
2022/08/22 13:20:48;;;;;;;8.27;1.92;;;25.00;99.90;;;;;;5048862;28;20131;-81
2022/08/22 13:23:24;;;;;;;4.70;1.33;;;24.90;99.90;;;;;;5065017;28;20044;-81
2022/08/22 13:26:05;;;;;;;6.25;2.22;;;24.90;99.90;;;;;;5083242;28;20047;-79
2022/08/22 13:28:36;;;;;;;6.20;1.40;;;25.00;99.90;;;;;;5069541;28;20040;-79
2022/08/22 13:31:03;;;;;;;7.35;1.88;;;25.00;99.90;;;;;;5101309;27;20059;-80
2022/08/22 13:33:33;;;;;;;6.88;1.50;;;25.20;99.90;;;;;;5095589;27;20617;-80
2022/08/22 13:36:06;;;;;;;8.05;2.00;;;25.20;99.90;;;;;;5065550;28;20044;-81
2022/08/22 13:38:59;;;;;;;9.68;1.80;;;25.10;99.90;;;;;;5068467;28;20055;-80
2022/08/22 13:41:39;;;;;;;5.95;1.67;;;25.20;99.90;;;;;;5066471;28;20069;-80
2022/08/22 13:44:07;;;;;;;3.85;1.25;;;25.20;99.90;;;;;;5066229;28;20047;-80
2022/08/22 13:46:35;;;;;;;7.22;1.60;;;25.20;99.90;;;;;;5064707;28;20500;-81
2022/08/22 13:49:05;;;;;;;5.50;1.48;;;25.20;99.90;;;;;;5064368;28;20038;-80
2022/08/22 13:51:49;;;;;;;4.88;1.75;;;25.10;99.90;;;;;;5062303;28;20093;-80
2022/08/22 13:54:14;;;;;;;7.65;1.65;;;25.00;99.90;;;;;;5053132;28;20056;-80
2022/08/22 13:56:49;;;;;;;7.03;1.95;;;24.80;99.90;;;;;;5062013;28;20054;-79
2022/08/22 13:59:32;;;;;;;9.50;1.98;;;24.50;99.90;;;;;;5067383;28;20084;-80
2022/08/22 14:02:24;;;;;;;7.50;1.45;;;24.30;99.90;;;;;;5085234;28;20073;-80
2022/08/22 14:04:54;;;;;;;9.15;2.33;;;24.30;99.90;;;;;;5081498;28;20043;-80
2022/08/22 14:07:30;;;;;;;10.93;2.38;;;24.40;99.90;;;;;;5065792;28;20777;-81
2022/08/22 14:10:11;;;;;;;6.97;2.30;;;24.50;99.90;;;;;;5082867;28;20036;-80
2022/08/22 14:13:06;;;;;;;4.47;1.60;;;24.70;99.90;;;;;;5098567;28;20202;-80
2022/08/22 14:15:34;;;;;;;5.78;1.75;;;24.80;99.90;;;;;;5065601;28;20055;-79
2022/08/22 14:18:10;;;;;;;7.90;2.30;;;24.80;99.90;;;;;;5064116;28;20041;-80
2022/08/22 14:20:38;;;;;;;6.65;1.50;;;24.70;99.90;;;;;;5066606;28;20135;-79
2022/08/22 14:23:12;;;;;;;5.57;1.60;;;24.60;99.90;;;;;;5067807;28;20062;-80
2022/08/22 14:25:40;;;;;;;6.13;1.88;;;24.60;99.90;;;;;;5066560;28;20067;-81
2022/08/22 14:28:19;;;;;;;6.28;1.85;;;24.50;99.90;;;;;;5064521;28;20502;-81
2022/08/22 14:30:59;;;;;;;7.63;2.10;;;24.40;99.90;;;;;;5061946;28;20097;-80
2022/08/22 14:33:32;;;;;;;3.88;1.35;;;24.30;99.90;;;;;;5064347;28;20121;-79
2022/08/22 14:36:02;;;;;;;7.32;1.55;;;24.30;99.90;;;;;;5065133;28;20411;-79
2022/08/22 14:38:38;;;;;;;9.15;2.15;;;24.30;99.90;;;;;;5062011;28;20042;-81
2022/08/22 14:41:04;;;;;;;5.25;1.45;;;24.30;99.90;;;;;;5082667;28;20036;-81
2022/08/22 14:43:30;;;;;;;3.28;1.02;;;24.30;99.10;;;;;;5068023;28;20124;-80
2022/08/22 14:46:04;;;;;;;4.85;1.80;;;24.40;99.00;;;;;;5071091;28;20147;-81
2022/08/22 14:48:40;;;;;;;5.03;1.40;;;24.50;99.40;;;;;;5045619;28;20054;-80
2022/08/22 14:51:16;;;;;;;3.35;1.40;;;24.80;99.00;;;;;;5063809;28;20916;-80
2022/08/22 14:53:42;;;;;;;4.45;1.23;;;24.80;98.90;;;;;;5082638;28;20123;-80
2022/08/22 14:56:10;;;;;;;8.15;2.05;;;24.90;99.10;;;;;;5092660;27;20045;-81
2022/08/22 14:58:58;;;;;;;8.45;1.70;;;25.10;98.80;;;;;;5062531;28;20052;-79
2022/08/22 15:01:26;;;;;;;8.55;1.58;;;25.30;99.50;;;;;;5062205;28;20143;-80
2022/08/22 15:03:59;;;;;;;6.50;2.38;;;25.40;99.40;;;;;;5073811;28;20036;-81
2022/08/22 15:06:37;;;;;;;6.78;1.55;;;25.50;99.20;;;;;;5083307;28;20043;-80
2022/08/22 15:09:29;;;;;;;8.27;1.55;;;25.60;99.50;;;;;;5061499;28;20063;-80
2022/08/22 15:12:05;;;;;;;6.35;1.83;;;25.80;99.50;;;;;;5049185;28;20598;-81
2022/08/22 15:14:37;;;;;;;5.63;1.55;;;25.80;99.20;;;;;;5041041;28;20063;-81
2022/08/22 15:17:06;;;;;;;8.20;1.73;;;25.70;99.10;;;;;;5079923;28;20067;-80